Time;durP1;ratioP1;P1;durP2;ratioP2;P2;SDS_P1;SDS_P2;PMS_P1;PMS_P2;Temp;Humidity;BMP_temperature;BMP_pressure;BME280_temperature;BME280_humidity;BME280_pressure;Samples;Min_cycle;Max_cycle;Signal;HPM_P1;HPM_P2
2021/03/12 00:00:43;;;;;;;37.25;27.55;;;13.30;56.70;;;;;;5055616;28;20174;-53
2021/03/12 00:03:20;;;;;;;44.15;29.88;;;13.30;56.90;;;;;;5054769;28;20037;-53
2021/03/12 00:05:57;;;;;;;36.65;28.08;;;13.40;56.90;;;;;;5057157;28;20127;-51
2021/03/12 00:08:29;;;;;;;38.45;27.90;;;13.30;57.30;;;;;;5060426;28;20440;-49
2021/03/12 00:10:55;;;;;;;40.88;30.08;;;13.30;57.60;;;;;;5054885;28;20486;-55
2021/03/12 00:13:21;;;;;;;45.50;30.55;;;13.30;57.20;;;;;;5055947;28;20043;-53
2021/03/12 00:15:47;;;;;;;44.58;29.80;;;13.30;57.20;;;;;;5052368;28;20710;-54
2021/03/12 00:18:17;;;;;;;44.90;31.13;;;13.30;57.10;;;;;;5057527;28;20036;-55
2021/03/12 00:20:43;;;;;;;42.90;30.92;;;13.20;57.30;;;;;;5051841;28;20028;-55
2021/03/12 00:23:09;;;;;;;41.35;31.42;;;13.20;57.40;;;;;;5058242;28;20047;-51
2021/03/12 00:25:39;;;;;;;44.88;32.05;;;13.30;57.10;;;;;;5056660;28;20457;-49
2021/03/12 00:28:06;;;;;;;43.22;33.55;;;13.20;57.30;;;;;;5056990;28;20064;-50
2021/03/12 00:30:32;;;;;;;51.45;33.45;;;13.20;56.90;;;;;;5056395;28;20051;-53
2021/03/12 00:32:58;;;;;;;45.13;34.60;;;13.20;56.90;;;;;;5056009;28;20044;-53
2021/03/12 00:35:24;;;;;;;51.05;33.63;;;13.30;57.00;;;;;;5057855;28;20072;-53
2021/03/12 00:37:50;;;;;;;45.10;32.53;;;13.20;56.90;;;;;;5055102;28;20079;-52
2021/03/12 00:40:24;;;;;;;49.42;32.75;;;13.20;56.90;;;;;;5060899;28;20060;-53
2021/03/12 00:42:49;;;;;;;46.97;32.47;;;13.20;57.20;;;;;;5052205;28;20049;-53
2021/03/12 00:45:35;;;;;;;48.58;33.35;;;13.10;57.00;;;;;;5060376;28;21559;-52
2021/03/12 00:48:01;;;;;;;53.50;34.58;;;13.20;57.30;;;;;;5029402;28;20037;-50
2021/03/12 00:50:32;;;;;;;49.90;35.85;;;13.00;57.10;;;;;;5058916;28;20041;-55
2021/03/12 00:52:57;;;;;;;51.58;37.38;;;12.90;56.90;;;;;;5053707;28;20135;-51
2021/03/12 00:55:23;;;;;;;58.47;37.33;;;12.80;57.00;;;;;;5055126;28;20131;-51
2021/03/12 00:57:48;;;;;;;56.28;36.90;;;12.90;57.10;;;;;;5058672;28;20127;-51
2021/03/12 01:00:15;;;;;;;48.47;37.42;;;13.00;56.90;;;;;;5055535;28;20029;-54
2021/03/12 01:02:41;;;;;;;49.10;37.10;;;13.00;56.80;;;;;;5059151;28;20032;-50
2021/03/12 01:05:07;;;;;;;49.38;36.13;;;13.00;56.70;;;;;;5058938;28;20040;-51
2021/03/12 01:07:33;;;;;;;49.45;35.75;;;13.00;56.40;;;;;;5052201;28;20052;-49
2021/03/12 01:09:59;;;;;;;52.58;37.05;;;13.00;56.20;;;;;;5056138;28;20033;-50
2021/03/12 01:12:24;;;;;;;48.90;35.20;;;13.00;56.30;;;;;;5055323;28;20037;-50
2021/03/12 01:14:50;;;;;;;56.05;36.60;;;13.00;56.10;;;;;;5055835;28;20402;-54
2021/03/12 01:17:16;;;;;;;52.05;37.67;;;12.90;56.20;;;;;;5057209;28;20474;-51
2021/03/12 01:19:41;;;;;;;54.83;37.42;;;12.80;56.40;;;;;;5056382;28;20033;-50
2021/03/12 01:22:07;;;;;;;50.72;36.05;;;12.80;56.50;;;;;;5058510;28;20064;-52
2021/03/12 01:24:33;;;;;;;53.92;36.03;;;12.90;56.60;;;;;;5055249;28;20041;-54
2021/03/12 01:26:59;;;;;;;52.65;36.40;;;12.80;56.30;;;;;;5054645;28;20029;-48
2021/03/12 01:29:26;;;;;;;50.95;36.97;;;12.80;56.60;;;;;;5055181;28;20670;-57
2021/03/12 01:31:52;;;;;;;49.10;35.92;;;12.80;56.60;;;;;;5063747;28;20032;-49
2021/03/12 01:34:17;;;;;;;54.15;37.95;;;12.70;56.70;;;;;;5047808;28;20486;-49
2021/03/12 01:36:43;;;;;;;49.40;37.10;;;12.70;56.90;;;;;;5059838;28;20072;-55
2021/03/12 01:39:09;;;;;;;56.65;38.85;;;12.70;57.20;;;;;;5053208;28;20036;-52
2021/03/12 01:41:34;;;;;;;53.22;37.55;;;12.70;56.90;;;;;;5063553;28;20064;-53
2021/03/12 01:44:00;;;;;;;57.00;38.40;;;12.70;57.00;;;;;;5053478;28;20041;-51
2021/03/12 01:46:25;;;;;;;60.88;39.97;;;12.70;57.10;;;;;;5063814;28;20493;-51
2021/03/12 01:48:51;;;;;;;51.90;38.20;;;12.60;57.00;;;;;;5060049;28;20040;-51
2021/03/12 01:51:17;;;;;;;53.22;39.75;;;12.70;57.60;;;;;;5061143;28;20029;-55
2021/03/12 01:53:43;;;;;;;51.92;37.90;;;12.60;57.40;;;;;;5060929;28;22042;-50
2021/03/12 01:56:10;;;;;;;57.05;39.38;;;12.70;57.20;;;;;;5054570;28;20127;-50
2021/03/12 01:58:36;;;;;;;54.03;38.20;;;12.60;57.30;;;;;;5059268;28;20150;-54
2021/03/12 02:01:03;;;;;;;52.90;38.80;;;12.60;57.40;;;;;;5053682;28;20041;-51
2021/03/12 02:04:18;;;;;;;59.25;39.53;;;12.50;57.50;;;;;;5062654;28;20041;-54
2021/03/12 02:06:44;;;;;;;52.85;39.40;;;12.50;58.00;;;;;;5030266;28;20045;-55
2021/03/12 02:09:10;;;;;;;51.67;37.83;;;12.50;57.30;;;;;;5058593;28;20124;-53
2021/03/12 02:11:37;;;;;;;51.88;37.72;;;12.50;57.60;;;;;;5058829;28;20489;-50
2021/03/12 02:14:10;;;;;;;57.08;37.90;;;12.50;58.00;;;;;;5056545;28;20053;-48
2021/03/12 02:16:50;;;;;;;52.13;38.30;;;12.40;58.20;;;;;;5054922;28;20121;-53
2021/03/12 02:19:40;;;;;;;54.70;40.45;;;12.50;58.70;;;;;;5061342;28;20098;-50
2021/03/12 02:22:07;;;;;;;55.83;40.10;;;12.50;58.50;;;;;;5026972;28;20040;-49
2021/03/12 02:24:33;;;;;;;52.58;39.40;;;12.50;58.30;;;;;;5059430;28;20036;-51
2021/03/12 02:27:09;;;;;;;54.03;41.33;;;12.40;57.90;;;;;;5051491;28;20032;-53
2021/03/12 02:29:41;;;;;;;55.92;41.83;;;12.50;58.40;;;;;;5059044;28;20045;-54
2021/03/12 02:32:08;;;;;;;57.47;39.92;;;12.50;58.10;;;;;;5058917;28;20032;-52
2021/03/12 02:34:39;;;;;;;53.03;39.53;;;12.50;57.80;;;;;;5061852;28;20090;-52
2021/03/12 02:37:07;;;;;;;52.63;38.47;;;12.50;57.90;;;;;;5057999;28;20059;-54
2021/03/12 02:39:45;;;;;;;52.63;38.35;;;12.60;57.50;;;;;;5062493;28;20051;-55
2021/03/12 02:42:13;;;;;;;47.92;36.83;;;12.60;57.50;;;;;;5053351;28;20075;-54
2021/03/12 02:44:39;;;;;;;51.65;36.72;;;12.60;57.20;;;;;;5064034;28;20059;-54
2021/03/12 02:47:16;;;;;;;51.30;36.60;;;12.60;57.20;;;;;;5056221;28;20047;-53
2021/03/12 02:49:43;;;;;;;51.80;37.05;;;12.60;57.60;;;;;;5055663;28;20033;-52
2021/03/12 02:52:09;;;;;;;49.53;34.85;;;12.50;57.70;;;;;;5055645;28;20041;-49
2021/03/12 02:54:36;;;;;;;52.25;36.58;;;12.50;57.50;;;;;;5063684;28;20052;-51
2021/03/12 02:57:03;;;;;;;49.42;34.88;;;12.50;57.70;;;;;;5056876;28;20060;-53
2021/03/12 02:59:30;;;;;;;48.53;35.28;;;12.40;57.80;;;;;;5056016;28;20044;-49
2021/03/12 03:01:56;;;;;;;47.97;33.80;;;12.40;58.80;;;;;;5054773;28;20047;-55
2021/03/12 03:04:24;;;;;;;49.10;34.30;;;12.40;58.40;;;;;;5059868;28;20036;-53
2021/03/12 03:06:50;;;;;;;48.13;32.78;;;12.30;58.30;;;;;;5058108;28;20454;-54
2021/03/12 03:09:17;;;;;;;47.05;33.15;;;12.30;58.20;;;;;;5051601;28;20095;-53
2021/03/12 03:11:44;;;;;;;43.28;32.45;;;12.30;58.60;;;;;;5055442;28;20068;-51
2021/03/12 03:14:11;;;;;;;46.85;32.55;;;12.30;58.50;;;;;;5055796;28;20137;-54
2021/03/12 03:16:38;;;;;;;43.58;33.13;;;12.20;58.50;;;;;;5054945;28;20037;-49
2021/03/12 03:19:06;;;;;;;44.10;32.90;;;12.20;58.50;;;;;;5055977;28;20139;-54
2021/03/12 03:21:33;;;;;;;45.80;34.25;;;12.10;58.80;;;;;;5055302;28;20040;-51
2021/03/12 03:23:59;;;;;;;45.28;33.45;;;12.10;58.70;;;;;;5055381;28;20124;-51
2021/03/12 03:26:24;;;;;;;52.85;34.65;;;12.10;58.70;;;;;;5061680;28;20129;-53
2021/03/12 03:28:53;;;;;;;50.13;35.20;;;12.10;58.40;;;;;;5068229;28;20067;-50
2021/03/12 03:31:20;;;;;;;46.88;33.67;;;12.10;58.30;;;;;;5056136;28;20050;-54
2021/03/12 03:37:09;;;;;;;47.85;33.83;;;12.10;58.10;;;;;;4995536;28;20103;-52
2021/03/12 03:39:35;;;;;;;47.35;34.20;;;12.10;58.30;;;;;;5051912;28;20098;-52
2021/03/12 03:42:04;;;;;;;47.35;33.78;;;12.00;58.20;;;;;;5058216;28;20044;-50
2021/03/12 03:44:33;;;;;;;47.50;34.10;;;11.90;57.90;;;;;;5054518;28;20044;-54
2021/03/12 03:47:01;;;;;;;51.45;34.17;;;12.00;57.80;;;;;;5058564;28;20033;-49
2021/03/12 03:49:28;;;;;;;50.53;34.25;;;12.00;58.00;;;;;;5052418;28;20068;-48
2021/03/12 03:51:55;;;;;;;46.90;36.35;;;12.00;58.10;;;;;;5060878;28;20048;-54
2021/03/12 03:54:22;;;;;;;53.17;37.92;;;12.00;58.20;;;;;;5056906;28;20146;-52
2021/03/12 03:56:49;;;;;;;49.83;37.22;;;11.90;57.70;;;;;;5059154;28;20114;-54
2021/03/12 03:59:16;;;;;;;51.72;36.63;;;11.90;57.80;;;;;;5056064;28;20046;-52
2021/03/12 04:01:42;;;;;;;51.40;36.53;;;11.80;57.80;;;;;;5058049;28;20049;-49
2021/03/12 04:04:09;;;;;;;51.75;38.03;;;11.80;57.80;;;;;;5059428;28;20123;-49
2021/03/12 04:06:40;;;;;;;53.47;37.30;;;11.80;57.90;;;;;;5053887;28;20054;-50
2021/03/12 04:09:06;;;;;;;49.92;37.42;;;11.80;58.00;;;;;;5058391;28;20581;-48
2021/03/12 04:11:35;;;;;;;52.97;37.77;;;11.70;57.50;;;;;;5055814;28;20036;-49
2021/03/12 04:14:02;;;;;;;50.55;38.28;;;11.80;58.10;;;;;;5053953;28;20045;-49
2021/03/12 04:16:29;;;;;;;52.80;37.03;;;11.70;57.60;;;;;;5060041;28;20090;-54
2021/03/12 04:18:56;;;;;;;57.17;38.10;;;11.70;57.80;;;;;;5056251;28;20036;-54
2021/03/12 04:21:22;;;;;;;53.53;37.60;;;11.70;58.00;;;;;;5055373;28;20036;-51
2021/03/12 04:23:48;;;;;;;50.92;35.13;;;11.70;57.70;;;;;;5055181;28;20094;-51
2021/03/12 04:26:15;;;;;;;49.90;37.10;;;11.70;58.00;;;;;;5055770;28;20040;-50
2021/03/12 04:28:44;;;;;;;53.22;37.35;;;11.70;57.90;;;;;;5057125;28;20029;-53
2021/03/12 04:31:10;;;;;;;45.72;35.25;;;11.60;58.40;;;;;;5052035;28;20039;-51
2021/03/12 04:33:37;;;;;;;49.15;36.70;;;11.60;58.60;;;;;;5059335;28;20045;-52
2021/03/12 04:36:04;;;;;;;54.33;36.40;;;11.50;59.00;;;;;;5054482;28;20049;-53
2021/03/12 04:38:30;;;;;;;52.30;35.60;;;11.50;58.80;;;;;;5057324;28;20117;-50
2021/03/12 04:40:56;;;;;;;48.72;37.22;;;11.50;59.00;;;;;;5051766;28;20122;-52
2021/03/12 04:43:22;;;;;;;51.25;35.72;;;11.50;58.80;;;;;;5056478;28;20102;-50
2021/03/12 04:45:48;;;;;;;50.47;36.33;;;11.50;58.90;;;;;;5054728;28;20493;-55
2021/03/12 04:48:15;;;;;;;49.70;35.75;;;11.50;58.70;;;;;;5055160;28;20119;-54
2021/03/12 04:50:41;;;;;;;55.95;36.75;;;11.50;58.70;;;;;;5057547;28;20029;-51
2021/03/12 04:53:07;;;;;;;50.88;35.63;;;11.50;58.40;;;;;;5052748;28;20033;-53
2021/03/12 04:55:33;;;;;;;51.22;35.25;;;11.50;58.70;;;;;;5053795;28;20414;-52
2021/03/12 04:58:01;;;;;;;48.88;35.75;;;11.50;58.80;;;;;;5052216;28;20052;-49
2021/03/12 05:00:31;;;;;;;50.10;35.75;;;11.50;58.70;;;;;;5063617;28;20042;-52
2021/03/12 05:02:57;;;;;;;53.45;37.63;;;11.50;58.80;;;;;;5057758;28;20029;-51
2021/03/12 05:05:23;;;;;;;53.72;38.50;;;11.50;58.60;;;;;;5056272;28;20489;-50
2021/03/12 05:07:50;;;;;;;53.72;37.78;;;11.40;58.60;;;;;;5053459;28;20100;-54
2021/03/12 05:10:15;;;;;;;54.72;36.55;;;11.40;58.80;;;;;;5063345;28;20035;-53
2021/03/12 05:12:41;;;;;;;51.20;36.38;;;11.30;59.00;;;;;;5054127;28;20040;-49
2021/03/12 05:15:07;;;;;;;55.60;37.50;;;11.20;59.30;;;;;;5064623;28;20076;-52
2021/03/12 05:17:33;;;;;;;51.00;37.85;;;11.30;59.30;;;;;;5057965;28;20047;-54
2021/03/12 05:19:58;;;;;;;50.65;36.92;;;11.20;59.40;;;;;;5058661;28;20120;-52
2021/03/12 05:22:24;;;;;;;49.60;37.90;;;11.30;59.50;;;;;;5071192;28;20123;-51
2021/03/12 05:24:50;;;;;;;57.08;37.22;;;11.20;59.80;;;;;;5059786;28;20037;-52
2021/03/12 05:27:16;;;;;;;52.90;36.78;;;11.20;59.60;;;;;;5060850;28;22691;-52
2021/03/12 05:29:42;;;;;;;55.85;38.42;;;11.30;59.70;;;;;;5059546;28;20028;-52
2021/03/12 05:32:07;;;;;;;47.97;35.85;;;11.20;59.60;;;;;;5067973;28;20140;-55
2021/03/12 05:34:33;;;;;;;52.70;37.28;;;11.20;59.90;;;;;;5055925;28;20139;-51
2021/03/12 05:36:59;;;;;;;55.50;39.38;;;11.20;59.90;;;;;;5060066;28;20087;-50
2021/03/12 05:39:24;;;;;;;58.25;38.83;;;11.20;60.00;;;;;;5060790;28;20450;-51
2021/03/12 05:41:53;;;;;;;59.20;39.03;;;11.20;60.10;;;;;;5058382;28;20036;-51
2021/03/12 05:44:18;;;;;;;50.88;36.85;;;11.20;60.50;;;;;;5068041;28;20067;-50
2021/03/12 05:46:45;;;;;;;57.33;39.80;;;11.10;60.40;;;;;;5063260;28;20503;-51
2021/03/12 05:49:14;;;;;;;53.03;37.95;;;11.10;60.60;;;;;;5059884;28;20052;-49
2021/03/12 05:51:40;;;;;;;57.72;39.50;;;11.20;60.20;;;;;;5063159;28;20059;-55
2021/03/12 05:54:06;;;;;;;54.25;38.50;;;11.20;60.00;;;;;;5054623;28;20494;-52
2021/03/12 05:56:33;;;;;;;61.65;40.72;;;11.20;60.00;;;;;;5064223;28;20045;-50
2021/03/12 05:58:59;;;;;;;60.63;42.85;;;11.20;59.90;;;;;;5055121;28;20079;-50
2021/03/12 06:01:25;;;;;;;56.38;40.30;;;11.20;59.90;;;;;;5059716;28;20032;-50
2021/03/12 06:03:51;;;;;;;65.38;42.08;;;11.10;60.00;;;;;;5059603;28;20028;-50
2021/03/12 06:06:17;;;;;;;59.75;41.58;;;11.10;59.90;;;;;;5060138;28;20200;-50
2021/03/12 06:08:43;;;;;;;57.53;41.88;;;11.10;59.90;;;;;;5060970;28;20037;-52
2021/03/12 06:11:08;;;;;;;55.30;41.13;;;11.10;59.80;;;;;;5056943;28;20470;-52
2021/03/12 06:13:55;;;;;;;58.63;43.28;;;11.20;59.50;;;;;;5062249;28;20048;-54
2021/03/12 06:16:22;;;;;;;54.92;39.63;;;11.20;59.60;;;;;;5058578;28;20463;-53
2021/03/12 06:19:10;;;;;;;55.65;40.30;;;11.10;59.80;;;;;;5059110;28;20041;-52
2021/03/12 06:21:36;;;;;;;62.15;41.63;;;11.20;59.80;;;;;;5018084;28;20346;-50
2021/03/12 06:24:20;;;;;;;62.60;42.88;;;11.20;59.60;;;;;;5058064;28;20045;-50
2021/03/12 06:26:46;;;;;;;58.65;41.53;;;11.20;59.60;;;;;;5057189;28;20036;-49
2021/03/12 06:29:12;;;;;;;62.30;41.83;;;11.20;59.70;;;;;;5061956;28;20032;-51
2021/03/12 06:31:37;;;;;;;54.58;41.00;;;11.30;59.70;;;;;;5054366;28;20124;-51
2021/03/12 06:34:10;;;;;;;61.90;41.67;;;11.20;59.80;;;;;;5059484;28;20106;-54
2021/03/12 06:36:36;;;;;;;63.10;42.20;;;11.30;59.50;;;;;;5059712;28;20427;-54
2021/03/12 06:39:02;;;;;;;59.03;42.15;;;11.20;59.70;;;;;;5060253;28;20078;-52
2021/03/12 06:41:41;;;;;;;56.92;42.65;;;11.20;59.90;;;;;;5059765;28;20387;-51
2021/03/12 06:44:25;;;;;;;62.35;41.75;;;11.30;59.70;;;;;;5064827;28;20040;-50
2021/03/12 06:46:51;;;;;;;63.28;44.17;;;11.30;60.00;;;;;;5049930;28;20047;-51
2021/03/12 06:49:17;;;;;;;62.83;44.70;;;11.30;59.70;;;;;;5074261;28;20040;-51
2021/03/12 06:51:58;;;;;;;64.43;46.00;;;11.30;59.30;;;;;;5060784;28;20506;-50
2021/03/12 06:54:28;;;;;;;62.97;42.72;;;11.10;59.10;;;;;;5059356;28;20041;-51
2021/03/12 06:56:55;;;;;;;59.95;44.78;;;11.20;59.80;;;;;;5053347;28;20037;-53
2021/03/12 06:59:31;;;;;;;61.55;43.92;;;11.20;59.30;;;;;;5064738;28;20500;-50
2021/03/12 07:02:01;;;;;;;60.28;43.35;;;11.30;59.50;;;;;;5053632;28;20091;-54
2021/03/12 07:04:29;;;;;;;59.88;44.05;;;11.30;59.40;;;;;;5058222;28;20041;-52
2021/03/12 07:06:55;;;;;;;66.38;43.85;;;11.40;59.30;;;;;;5057682;28;20436;-49
2021/03/12 07:09:23;;;;;;;66.15;43.75;;;11.30;59.40;;;;;;5060708;28;20044;-54
2021/03/12 07:11:58;;;;;;;65.28;45.42;;;11.40;59.00;;;;;;5057951;28;20961;-50
2021/03/12 07:14:25;;;;;;;61.13;44.73;;;11.60;59.00;;;;;;5056336;28;20029;-52
2021/03/12 07:16:52;;;;;;;57.78;45.40;;;11.60;58.60;;;;;;5055218;28;20044;-53
2021/03/12 07:19:20;;;;;;;61.65;43.88;;;11.60;58.90;;;;;;5063223;28;20067;-50
2021/03/12 07:21:48;;;;;;;65.45;45.58;;;11.70;58.50;;;;;;5055768;28;20670;-53
2021/03/12 07:24:21;;;;;;;61.53;44.40;;;11.80;58.10;;;;;;5051331;28;20106;-52
2021/03/12 07:26:54;;;;;;;62.90;45.78;;;11.90;58.30;;;;;;5059187;28;20478;-52
2021/03/12 07:29:23;;;;;;;61.95;44.70;;;12.00;57.70;;;;;;5054142;28;20045;-53
2021/03/12 07:31:54;;;;;;;62.55;44.90;;;12.10;57.20;;;;;;5056945;28;20098;-56
2021/03/12 07:34:29;;;;;;;65.80;46.03;;;12.20;57.00;;;;;;5054270;28;20041;-54
2021/03/12 07:37:02;;;;;;;58.40;41.67;;;12.30;57.00;;;;;;5050582;28;20029;-55
2021/03/12 07:39:41;;;;;;;58.58;43.90;;;12.20;56.30;;;;;;5055038;28;20508;-54
2021/03/12 07:42:09;;;;;;;64.55;41.78;;;12.30;57.00;;;;;;5057609;28;20482;-55
2021/03/12 07:44:37;;;;;;;60.85;43.42;;;12.30;56.40;;;;;;5044857;28;20667;-54
2021/03/12 07:47:03;;;;;;;62.13;46.42;;;12.20;56.00;;;;;;5055455;28;20032;-52
2021/03/12 07:49:30;;;;;;;70.57;46.25;;;12.10;56.60;;;;;;5052186;28;20048;-51
2021/03/12 07:51:57;;;;;;;65.43;45.72;;;12.20;57.00;;;;;;5061311;28;20150;-50
2021/03/12 07:54:39;;;;;;;66.72;45.67;;;12.20;56.80;;;;;;5056022;28;20050;-52
2021/03/12 07:57:06;;;;;;;65.45;43.63;;;12.30;56.30;;;;;;5029821;28;20037;-53
2021/03/12 07:59:47;;;;;;;68.68;46.88;;;12.40;56.50;;;;;;5055252;28;20032;-52
2021/03/12 08:02:13;;;;;;;66.35;45.60;;;12.40;56.40;;;;;;5061072;28;20484;-52
2021/03/12 08:04:40;;;;;;;65.38;45.25;;;12.40;55.40;;;;;;5058436;28;20398;-55
2021/03/12 08:07:20;;;;;;;63.28;44.72;;;12.50;56.00;;;;;;5053403;28;20036;-49
2021/03/12 08:09:53;;;;;;;66.65;45.80;;;12.70;55.30;;;;;;5060980;28;20513;-52
2021/03/12 08:12:32;;;;;;;66.03;45.13;;;12.80;55.40;;;;;;5060064;28;20546;-55
2021/03/12 08:15:19;;;;;;;60.00;44.00;;;12.80;55.00;;;;;;5052513;28;20044;-53
2021/03/12 08:17:58;;;;;;;61.58;42.05;;;13.10;54.80;;;;;;5056408;28;20041;-54
2021/03/12 08:20:26;;;;;;;63.15;44.05;;;13.30;54.00;;;;;;5049279;28;20466;-53
2021/03/12 08:22:54;;;;;;;64.65;44.20;;;13.50;53.50;;;;;;5058873;28;20037;-51
2021/03/12 08:25:31;;;;;;;58.38;41.60;;;13.40;53.20;;;;;;5055338;28;20032;-54
2021/03/12 08:28:06;;;;;;;61.17;42.58;;;13.40;53.50;;;;;;5064472;28;20037;-54
2021/03/12 08:30:35;;;;;;;62.38;44.20;;;13.30;53.60;;;;;;5054930;28;20040;-52
2021/03/12 08:33:03;;;;;;;56.53;41.95;;;13.10;53.20;;;;;;5059872;28;20432;-52
2021/03/12 08:35:41;;;;;;;64.28;45.83;;;13.20;53.70;;;;;;5049777;28;20061;-55
2021/03/12 08:38:30;;;;;;;57.15;42.47;;;13.20;53.40;;;;;;5062480;28;20313;-53
2021/03/12 08:41:01;;;;;;;58.60;42.60;;;13.20;53.70;;;;;;5055274;28;20033;-55
2021/03/12 08:43:28;;;;;;;63.33;44.55;;;13.20;53.50;;;;;;5053518;28;20041;-53
2021/03/12 08:46:11;;;;;;;67.13;44.80;;;13.30;53.40;;;;;;5048614;28;20482;-50
2021/03/12 08:48:37;;;;;;;61.15;41.88;;;13.40;53.30;;;;;;5036958;28;20493;-52
2021/03/12 08:51:15;;;;;;;60.88;42.92;;;13.20;53.00;;;;;;5056117;28;20043;-54
2021/03/12 08:53:51;;;;;;;61.53;43.03;;;13.30;53.10;;;;;;5062879;28;20048;-51
2021/03/12 08:56:23;;;;;;;61.60;43.15;;;13.40;53.00;;;;;;5059595;28;20082;-51
2021/03/12 08:58:49;;;;;;;61.30;41.47;;;13.40;52.80;;;;;;5060184;28;20734;-52
2021/03/12 09:01:26;;;;;;;61.75;43.42;;;13.50;52.90;;;;;;5055097;28;20040;-53
2021/03/12 09:04:00;;;;;;;59.95;41.08;;;13.60;53.00;;;;;;5059226;28;20036;-54
2021/03/12 09:06:28;;;;;;;60.30;43.27;;;13.60;52.80;;;;;;5054880;28;20040;-53
2021/03/12 09:08:55;;;;;;;62.10;43.92;;;13.60;53.30;;;;;;5059433;28;20436;-55
2021/03/12 09:11:22;;;;;;;53.90;40.67;;;13.60;53.30;;;;;;5055096;28;20090;-52
2021/03/12 09:13:49;;;;;;;60.33;40.90;;;13.70;53.40;;;;;;5055269;28;20075;-51
2021/03/12 09:16:24;;;;;;;49.70;36.85;;;13.70;53.20;;;;;;5062480;28;20036;-50
2021/03/12 09:18:51;;;;;;;;;;;13.80;53.20;;;;;;5059727;28;20051;-50
2021/03/12 09:21:18;;;;;;;44.00;32.05;;;13.60;53.20;;;;;;5057511;28;19913;-49
2021/03/12 09:23:50;;;;;;;46.50;34.28;;;13.60;53.50;;;;;;5052935;28;20037;-51
2021/03/12 09:33:26;;;;;;;36.42;25.00;;;13.80;52.50;;;;;;5002173;28;20559;-50
2021/03/12 09:35:52;;;;;;;35.70;25.33;;;13.70;53.10;;;;;;5058745;28;20044;-55
2021/03/12 09:38:41;;;;;;;37.03;26.48;;;13.70;53.00;;;;;;5058064;28;20123;-54
2021/03/12 09:41:26;;;;;;;39.35;29.02;;;13.90;52.50;;;;;;5034491;28;20048;-52
2021/03/12 09:44:10;;;;;;;36.90;26.10;;;13.90;53.00;;;;;;5053698;28;20045;-53
2021/03/12 09:46:47;;;;;;;40.85;28.48;;;13.90;53.00;;;;;;5030042;28;20086;-50
2021/03/12 09:49:23;;;;;;;40.55;29.13;;;13.90;52.70;;;;;;5059378;28;20522;-51
2021/03/12 09:51:53;;;;;;;43.17;27.33;;;13.90;52.70;;;;;;5056877;28;20032;-50
2021/03/12 09:54:19;;;;;;;42.22;26.77;;;14.00;52.70;;;;;;5049084;28;20470;-49
2021/03/12 09:56:48;;;;;;;39.08;27.25;;;14.00;52.60;;;;;;5062988;28;20616;-49
2021/03/12 09:59:14;;;;;;;40.17;25.95;;;14.10;52.70;;;;;;5049535;28;20087;-49
2021/03/12 10:01:41;;;;;;;35.03;24.27;;;14.10;52.20;;;;;;5056546;28;20510;-50
2021/03/12 10:04:32;;;;;;;32.33;21.02;;;14.10;52.20;;;;;;5055255;28;20078;-50
2021/03/12 10:07:04;;;;;;;31.13;20.95;;;14.20;52.50;;;;;;5061587;28;20371;-56
2021/03/12 10:09:31;;;;;;;30.35;21.83;;;14.30;52.30;;;;;;5061323;28;20033;-55
2021/03/12 10:11:58;;;;;;;33.95;23.13;;;14.20;51.70;;;;;;5060522;28;20394;-53
2021/03/12 10:14:30;;;;;;;34.55;23.40;;;14.30;52.40;;;;;;5057099;28;20049;-55
2021/03/12 10:17:08;;;;;;;35.72;24.35;;;14.40;51.50;;;;;;5052987;28;20040;-55
2021/03/12 10:19:41;;;;;;;33.05;24.95;;;14.40;51.20;;;;;;5045862;28;20041;-54
2021/03/12 10:22:52;;;;;;;26.58;19.73;;;14.50;51.20;;;;;;5062496;28;20052;-55
2021/03/12 10:25:50;;;;;;;25.80;19.50;;;14.60;50.90;;;;;;4987701;28;20049;-55
2021/03/12 10:28:19;;;;;;;28.05;20.30;;;14.60;51.20;;;;;;4976694;28;20489;-55
2021/03/12 10:30:49;;;;;;;34.30;20.75;;;14.70;51.20;;;;;;5059564;28;20123;-55
2021/03/12 10:33:20;;;;;;;29.70;19.83;;;14.90;51.20;;;;;;5072360;28;20039;-53
2021/03/12 10:35:57;;;;;;;33.38;22.73;;;14.90;50.90;;;;;;5054523;28;20053;-52
2021/03/12 10:38:23;;;;;;;25.67;18.63;;;15.00;50.50;;;;;;5058569;28;20033;-54
2021/03/12 10:41:01;;;;;;;27.20;20.60;;;15.10;50.60;;;;;;5074857;28;20063;-49
2021/03/12 10:43:34;;;;;;;28.20;19.45;;;15.10;50.20;;;;;;5063412;28;20510;-53
2021/03/12 10:46:11;;;;;;;26.80;19.70;;;15.20;50.20;;;;;;5058516;28;20041;-54
2021/03/12 10:48:41;;;;;;;29.67;19.85;;;15.30;50.20;;;;;;5059932;28;20039;-54
2021/03/12 10:51:09;;;;;;;27.08;20.52;;;15.40;49.90;;;;;;5056917;28;20047;-55
2021/03/12 10:53:52;;;;;;;27.45;19.45;;;15.40;49.80;;;;;;5057875;28;20043;-52
2021/03/12 10:56:18;;;;;;;25.88;20.75;;;15.50;49.50;;;;;;5055831;28;20052;-56
2021/03/12 10:58:44;;;;;;;29.90;20.98;;;15.40;49.00;;;;;;5053822;28;20040;-56
2021/03/12 11:01:22;;;;;;;26.38;20.48;;;15.30;49.00;;;;;;5054922;28;20404;-53
2021/03/12 11:03:48;;;;;;;36.28;21.67;;;15.40;48.50;;;;;;5064617;28;20931;-53
2021/03/12 11:06:17;;;;;;;32.28;21.38;;;15.40;48.50;;;;;;5056713;28;20127;-52
2021/03/12 11:08:43;;;;;;;28.70;21.45;;;15.60;48.80;;;;;;5059264;28;20051;-50
2021/03/12 11:11:11;;;;;;;29.77;21.42;;;15.70;48.50;;;;;;5052903;28;20045;-52
2021/03/12 11:13:39;;;;;;;30.88;21.67;;;15.80;48.30;;;;;;5058865;28;20039;-51
2021/03/12 11:16:05;;;;;;;28.58;21.50;;;15.90;47.90;;;;;;5056241;28;20040;-50
2021/03/12 11:18:31;;;;;;;28.48;22.60;;;16.10;46.90;;;;;;5063890;28;20121;-53
2021/03/12 11:20:59;;;;;;;28.10;22.83;;;16.10;47.20;;;;;;5054334;28;20037;-52
2021/03/12 11:23:24;;;;;;;29.73;22.85;;;16.20;47.10;;;;;;5048682;28;20106;-55
2021/03/12 11:25:50;;;;;;;27.58;22.17;;;16.30;46.50;;;;;;5062224;28;20064;-55
2021/03/12 11:28:16;;;;;;;32.20;23.15;;;16.40;45.90;;;;;;5057694;28;20413;-55
2021/03/12 11:30:41;;;;;;;25.17;20.08;;;16.20;44.90;;;;;;5063257;28;20044;-56
2021/03/12 11:33:07;;;;;;;28.77;21.52;;;16.30;45.40;;;;;;5057505;28;20766;-54
2021/03/12 11:35:36;;;;;;;27.50;19.95;;;16.40;45.00;;;;;;5064494;28;20049;-53
2021/03/12 11:38:01;;;;;;;27.83;20.52;;;16.60;45.10;;;;;;5055181;28;20130;-53
2021/03/12 11:40:27;;;;;;;28.40;21.17;;;16.30;44.60;;;;;;5065226;28;20533;-52
2021/03/12 11:42:53;;;;;;;25.23;21.35;;;16.40;44.70;;;;;;5052672;28;20060;-51
2021/03/12 11:45:19;;;;;;;27.50;19.77;;;16.40;45.10;;;;;;5058910;28;20044;-54
2021/03/12 11:47:46;;;;;;;26.92;19.65;;;16.60;44.80;;;;;;5051968;28;20479;-51
2021/03/12 11:50:14;;;;;;;27.88;19.88;;;16.60;44.80;;;;;;5061104;28;20041;-54
2021/03/12 11:52:40;;;;;;;25.75;21.30;;;16.60;43.70;;;;;;5049928;28;20124;-54
2021/03/12 11:55:07;;;;;;;28.98;20.63;;;16.80;44.30;;;;;;5058794;28;20553;-52
2021/03/12 11:57:34;;;;;;;26.45;20.92;;;16.90;43.60;;;;;;5063293;28;20024;-55
2021/03/12 12:00:00;;;;;;;24.65;20.95;;;17.00;43.30;;;;;;5054806;28;20040;-52
2021/03/12 12:02:26;;;;;;;29.83;21.27;;;17.00;43.90;;;;;;5061058;28;20537;-54
2021/03/12 12:04:52;;;;;;;24.23;20.83;;;17.20;43.40;;;;;;5053524;28;20063;-53
2021/03/12 12:07:18;;;;;;;26.02;21.50;;;17.40;43.20;;;;;;5058408;28;20135;-54
2021/03/12 12:09:44;;;;;;;31.05;21.85;;;17.40;42.80;;;;;;5056445;28;20043;-52
2021/03/12 12:12:11;;;;;;;31.65;21.58;;;17.60;42.70;;;;;;5059305;28;20036;-55
2021/03/12 12:14:37;;;;;;;30.40;22.77;;;17.90;42.70;;;;;;5051032;28;20045;-54
2021/03/12 12:17:04;;;;;;;32.95;22.25;;;18.00;42.30;;;;;;5060556;28;20119;-56
2021/03/12 12:19:31;;;;;;;26.77;22.33;;;18.10;42.30;;;;;;5052655;28;20029;-54
2021/03/12 12:21:56;;;;;;;28.08;22.50;;;18.10;42.20;;;;;;5064638;28;20025;-57
2021/03/12 12:24:22;;;;;;;27.40;21.40;;;18.20;41.60;;;;;;5049321;28;20558;-55
2021/03/12 12:26:48;;;;;;;27.50;23.38;;;18.30;41.80;;;;;;5062122;28;20049;-55
2021/03/12 12:29:14;;;;;;;26.58;22.60;;;18.60;41.10;;;;;;5053290;28;20129;-54
2021/03/12 12:31:39;;;;;;;26.95;22.33;;;18.60;41.60;;;;;;5067064;28;20094;-53
2021/03/12 12:34:05;;;;;;;29.27;23.45;;;18.70;41.50;;;;;;5051694;28;20068;-53
2021/03/12 12:36:32;;;;;;;33.05;24.08;;;18.70;40.30;;;;;;5055970;28;20429;-52
2021/03/12 12:38:59;;;;;;;30.75;24.15;;;19.00;40.10;;;;;;5058335;28;20035;-51
2021/03/12 12:41:25;;;;;;;28.30;23.42;;;19.30;40.00;;;;;;5072898;28;20509;-54
2021/03/12 12:43:51;;;;;;;32.65;24.40;;;19.90;39.50;;;;;;5057429;28;20049;-54
2021/03/12 12:46:17;;;;;;;29.35;23.90;;;20.80;37.50;;;;;;5050737;28;20128;-50
2021/03/12 12:48:43;;;;;;;27.95;23.42;;;22.40;34.50;;;;;;5055080;28;20116;-52